Time;durP1;ratioP1;P1;durP2;ratioP2;P2;SDS_P1;SDS_P2;PMS_P1;PMS_P2;Temp;Humidity;BMP_temperature;BMP_pressure;BME280_temperature;BME280_humidity;BME280_pressure;Samples;Min_cycle;Max_cycle;Signal;HPM_P1;HPM_P2
2023/04/25 00:01:39;;;;;;;26.15;3.38;;;7.00;99.90;;;;;;5108974;28;20051;-77
2023/04/25 00:04:08;;;;;;;14.15;2.45;;;6.90;99.90;;;;;;5109563;28;20043;-76
2023/04/25 00:06:37;;;;;;;26.75;3.22;;;6.90;99.90;;;;;;5109655;28;20043;-76
2023/04/25 00:09:10;;;;;;;18.98;3.15;;;7.10;99.90;;;;;;5108627;28;20047;-76
2023/04/25 00:11:36;;;;;;;16.83;2.75;;;7.20;99.90;;;;;;5108769;28;20520;-77
2023/04/25 00:14:03;;;;;;;23.00;3.30;;;6.90;99.90;;;;;;5108991;28;20394;-76
2023/04/25 00:16:33;;;;;;;15.00;2.72;;;6.90;99.90;;;;;;5091077;28;20047;-76
2023/04/25 00:18:58;;;;;;;23.30;3.60;;;6.90;99.90;;;;;;5110891;28;20463;-76
2023/04/25 00:21:25;;;;;;;37.08;4.85;;;6.60;99.90;;;;;;5109141;28;20093;-76
2023/04/25 00:23:52;;;;;;;19.70;3.40;;;8.00;99.90;;;;;;5110617;28;20069;-76
2023/04/25 00:26:18;;;;;;;18.15;2.38;;;7.40;99.90;;;;;;5107998;28;20039;-77
2023/04/25 00:28:44;;;;;;;20.60;3.33;;;7.50;99.90;;;;;;5109722;28;20032;-77
2023/04/25 00:31:10;;;;;;;12.63;1.70;;;6.80;99.90;;;;;;5109892;28;20372;-77
2023/04/25 00:33:36;;;;;;;17.83;3.47;;;6.70;99.90;;;;;;5107570;28;20142;-76
2023/04/25 00:36:01;;;;;;;14.05;1.83;;;6.60;99.90;;;;;;5109171;28;20055;-76
2023/04/25 00:38:27;;;;;;;16.92;2.92;;;6.60;99.90;;;;;;5107500;28;20387;-76
2023/04/25 00:40:55;;;;;;;15.15;2.35;;;6.50;99.90;;;;;;5110152;28;20108;-76
2023/04/25 00:43:21;;;;;;;15.60;2.20;;;7.80;99.90;;;;;;5108306;28;20332;-76
2023/04/25 00:45:48;;;;;;;12.00;2.47;;;6.50;99.90;;;;;;5108235;28;20575;-76
2023/04/25 00:48:14;;;;;;;9.90;1.95;;;6.40;99.90;;;;;;5110040;28;20125;-77
2023/04/25 00:50:40;;;;;;;11.02;2.28;;;6.40;99.90;;;;;;5108155;28;20067;-76
2023/04/25 00:53:07;;;;;;;18.50;1.90;;;6.40;99.90;;;;;;5108350;28;20056;-76
2023/04/25 00:55:34;;;;;;;10.95;2.65;;;7.70;99.90;;;;;;5107074;28;20044;-76
2023/04/25 00:58:00;;;;;;;23.13;4.05;;;6.40;99.90;;;;;;5108634;28;20118;-76
2023/04/25 01:00:26;;;;;;;12.32;2.38;;;6.40;99.90;;;;;;5107211;28;20185;-76
2023/04/25 01:02:52;;;;;;;11.43;1.92;;;6.40;99.90;;;;;;5108240;28;20566;-76
2023/04/25 01:05:18;;;;;;;20.67;3.50;;;6.40;99.90;;;;;;5107197;28;20048;-76
2023/04/25 01:07:45;;;;;;;16.50;1.95;;;6.40;99.90;;;;;;5107530;28;20051;-76
2023/04/25 01:10:11;;;;;;;19.77;2.28;;;6.40;99.90;;;;;;5107854;28;20051;-76
2023/04/25 01:12:36;;;;;;;14.55;2.30;;;6.60;99.90;;;;;;5108249;28;20047;-76
2023/04/25 01:15:02;;;;;;;15.05;2.50;;;6.70;99.90;;;;;;5108582;28;20036;-77
2023/04/25 01:17:28;;;;;;;16.38;2.78;;;6.40;99.90;;;;;;5106835;28;20409;-76
2023/04/25 01:19:55;;;;;;;12.20;2.10;;;6.40;99.90;;;;;;5108081;28;20118;-76
2023/04/25 01:22:21;;;;;;;27.63;4.30;;;7.70;99.90;;;;;;5107317;28;20082;-77
2023/04/25 01:24:47;;;;;;;14.45;2.17;;;7.90;99.90;;;;;;5106825;28;20048;-77
2023/04/25 01:27:13;;;;;;;11.30;1.75;;;6.40;99.90;;;;;;5107364;28;20088;-76
2023/04/25 01:29:39;;;;;;;13.15;1.90;;;6.50;99.90;;;;;;5106650;28;20040;-76
2023/04/25 01:32:05;;;;;;;17.20;2.90;;;6.30;99.90;;;;;;5110110;27;20050;-76
2023/04/25 01:34:32;;;;;;;14.38;2.03;;;6.30;99.90;;;;;;5128679;27;20096;-76
2023/04/25 01:37:00;;;;;;;17.95;2.17;;;6.30;99.90;;;;;;5110738;27;20043;-76
2023/04/25 01:39:26;;;;;;;16.58;2.00;;;6.50;99.90;;;;;;5093240;27;20050;-76
2023/04/25 01:41:51;;;;;;;20.15;2.75;;;6.30;99.90;;;;;;5110304;27;20108;-76
2023/04/25 01:44:17;;;;;;;9.40;2.45;;;7.70;99.90;;;;;;5110406;27;20043;-77
2023/04/25 01:46:43;;;;;;;17.08;2.20;;;7.60;99.90;;;;;;5128202;27;20043;-76
2023/04/25 01:49:09;;;;;;;17.33;2.67;;;6.20;99.90;;;;;;5110975;27;20043;-76
2023/04/25 01:51:35;;;;;;;18.75;2.85;;;6.20;99.90;;;;;;5109720;27;20066;-76
2023/04/25 01:54:01;;;;;;;24.52;2.67;;;6.20;99.90;;;;;;5110962;27;20519;-76
2023/04/25 01:56:36;;;;;;;20.65;2.92;;;6.20;99.90;;;;;;5128616;27;20058;-77
2023/04/25 01:59:01;;;;;;;14.82;1.90;;;6.20;99.90;;;;;;5109915;27;20046;-76
2023/04/25 02:01:27;;;;;;;14.25;2.15;;;7.10;99.90;;;;;;5128482;27;20047;-76
2023/04/25 02:03:53;;;;;;;21.98;3.95;;;6.20;99.90;;;;;;5092894;27;20123;-76
2023/04/25 02:06:18;;;;;;;25.70;4.20;;;6.20;99.90;;;;;;5110807;27;20048;-76
2023/04/25 02:08:44;;;;;;;24.13;3.70;;;6.20;99.90;;;;;;5109527;27;20047;-76
2023/04/25 02:11:10;;;;;;;20.90;3.97;;;6.10;99.90;;;;;;5110801;28;20511;-76
2023/04/25 02:13:35;;;;;;;17.25;2.13;;;6.90;99.90;;;;;;5109567;27;20456;-76
2023/04/25 02:16:01;;;;;;;19.60;2.33;;;6.00;99.90;;;;;;5109715;27;20050;-76
2023/04/25 02:18:27;;;;;;;19.95;3.03;;;5.90;99.90;;;;;;5092232;27;20043;-76
2023/04/25 02:20:53;;;;;;;23.65;3.13;;;5.90;99.90;;;;;;5109592;27;20039;-76
2023/04/25 02:23:19;;;;;;;19.95;3.10;;;6.00;99.90;;;;;;5110589;27;20447;-76
2023/04/25 02:25:45;;;;;;;15.85;2.40;;;5.30;99.90;;;;;;5109509;27;20051;-76
2023/04/25 02:28:11;;;;;;;11.30;1.80;;;5.80;99.90;;;;;;5110083;27;20486;-76
2023/04/25 02:30:37;;;;;;;14.95;1.98;;;5.80;99.90;;;;;;5092713;28;20071;-76
2023/04/25 02:33:02;;;;;;;15.18;2.10;;;5.80;99.90;;;;;;5109268;27;20536;-76
2023/04/25 02:35:28;;;;;;;17.88;2.33;;;5.80;99.90;;;;;;5075907;28;20083;-76
2023/04/25 02:37:54;;;;;;;15.25;1.85;;;6.40;99.90;;;;;;5127814;27;20462;-76
2023/04/25 02:40:19;;;;;;;17.15;2.22;;;5.80;99.90;;;;;;5093262;28;20036;-76
2023/04/25 02:42:48;;;;;;;16.20;1.80;;;5.70;99.90;;;;;;5108496;28;20101;-76
2023/04/25 02:45:14;;;;;;;18.40;2.25;;;5.80;99.90;;;;;;5109982;28;20039;-76
2023/04/25 02:47:39;;;;;;;12.63;1.90;;;5.80;99.90;;;;;;5108876;28;20035;-76
2023/04/25 02:50:05;;;;;;;12.00;1.77;;;7.20;99.90;;;;;;5109392;28;20058;-76
2023/04/25 02:52:31;;;;;;;10.23;1.60;;;5.80;99.90;;;;;;5109363;28;20099;-76
2023/04/25 02:54:57;;;;;;;11.82;2.22;;;5.80;99.90;;;;;;5109227;28;20039;-76
2023/04/25 02:57:22;;;;;;;18.42;2.00;;;7.30;99.90;;;;;;5109964;28;20463;-76
2023/04/25 02:59:48;;;;;;;18.92;2.42;;;5.80;99.90;;;;;;5108558;28;20119;-76
2023/04/25 03:02:14;;;;;;;11.00;1.90;;;5.80;99.90;;;;;;5109753;28;20054;-76
2023/04/25 03:04:40;;;;;;;16.58;3.10;;;6.00;99.90;;;;;;5109139;28;20079;-76
2023/04/25 03:07:05;;;;;;;14.50;2.30;;;5.80;99.90;;;;;;5109371;28;20054;-76
2023/04/25 03:09:31;;;;;;;13.25;2.35;;;5.70;99.90;;;;;;5109469;28;20075;-76
2023/04/25 03:11:57;;;;;;;20.80;3.40;;;5.70;99.90;;;;;;5109016;28;20422;-76
2023/04/25 03:14:23;;;;;;;12.00;1.73;;;7.10;99.90;;;;;;5127946;28;20043;-76
2023/04/25 03:16:48;;;;;;;13.05;1.83;;;6.70;99.90;;;;;;5127287;28;20082;-76
2023/04/25 03:19:16;;;;;;;17.90;2.22;;;5.60;99.90;;;;;;5109824;28;20108;-76
2023/04/25 03:21:42;;;;;;;9.50;1.20;;;5.60;99.90;;;;;;5108797;28;20455;-76
2023/04/25 03:24:08;;;;;;;11.43;1.75;;;5.50;99.90;;;;;;5127998;28;20050;-76
2023/04/25 03:26:34;;;;;;;11.73;1.63;;;5.40;99.90;;;;;;5092059;28;20043;-76
2023/04/25 03:29:00;;;;;;;12.18;1.70;;;5.40;99.90;;;;;;5127279;27;20066;-76
2023/04/25 03:31:25;;;;;;;19.38;2.53;;;5.30;99.90;;;;;;5113197;27;20085;-76
2023/04/25 03:33:51;;;;;;;9.93;1.80;;;5.30;99.90;;;;;;5130618;27;20132;-76
2023/04/25 03:36:17;;;;;;;15.48;2.45;;;5.20;99.90;;;;;;5113579;27;20074;-76
2023/04/25 03:38:43;;;;;;;12.30;1.48;;;5.20;99.90;;;;;;5112639;27;20039;-77
2023/04/25 03:41:08;;;;;;;11.55;1.23;;;5.10;99.90;;;;;;5131764;27;20039;-76
2023/04/25 03:43:34;;;;;;;12.45;1.35;;;6.60;99.90;;;;;;5131165;27;20070;-76
2023/04/25 03:46:00;;;;;;;9.38;1.38;;;5.00;99.90;;;;;;5131098;27;20035;-76
2023/04/25 03:48:26;;;;;;;14.10;1.50;;;5.90;99.90;;;;;;5112986;27;20513;-76
2023/04/25 03:50:53;;;;;;;13.05;1.63;;;4.90;99.90;;;;;;5094982;27;20039;-77
2023/04/25 03:53:19;;;;;;;9.98;1.58;;;4.90;99.90;;;;;;5113604;27;20035;-76
2023/04/25 03:55:45;;;;;;;18.85;2.00;;;4.90;99.90;;;;;;5095195;27;20035;-76
2023/04/25 03:58:10;;;;;;;18.65;1.75;;;4.90;99.90;;;;;;5112826;27;20426;-76
2023/04/25 04:00:36;;;;;;;10.57;2.00;;;4.90;99.90;;;;;;5112157;27;20094;-77
2023/04/25 04:03:02;;;;;;;16.55;4.10;;;4.90;99.90;;;;;;5095178;27;20379;-77
2023/04/25 04:05:28;;;;;;;13.50;1.63;;;4.80;99.90;;;;;;5131108;27;20051;-77
2023/04/25 04:07:55;;;;;;;12.13;1.95;;;4.80;99.90;;;;;;5111835;27;20035;-77
2023/04/25 04:10:21;;;;;;;13.27;1.52;;;4.80;99.90;;;;;;5131572;27;20050;-77
2023/04/25 04:12:46;;;;;;;8.85;1.65;;;4.70;99.90;;;;;;5130002;27;20520;-77
2023/04/25 04:15:12;;;;;;;12.20;1.80;;;4.70;99.90;;;;;;5113046;27;20122;-77
2023/04/25 04:17:38;;;;;;;13.13;2.10;;;4.70;99.90;;;;;;5130381;27;20504;-77
2023/04/25 04:20:05;;;;;;;11.57;1.75;;;4.60;99.90;;;;;;5130449;27;20047;-77
2023/04/25 04:22:31;;;;;;;18.70;2.45;;;4.50;99.90;;;;;;5130557;27;20086;-76
2023/04/25 04:24:57;;;;;;;12.27;1.80;;;4.50;99.90;;;;;;5129948;27;20075;-77
2023/04/25 04:27:23;;;;;;;8.75;1.48;;;4.40;99.90;;;;;;5131013;27;20043;-76
2023/04/25 04:29:52;;;;;;;8.90;1.77;;;4.40;99.90;;;;;;5129285;27;20164;-77
2023/04/25 04:32:18;;;;;;;15.15;2.65;;;4.30;99.90;;;;;;5111934;27;20059;-76
2023/04/25 04:34:44;;;;;;;9.55;1.95;;;4.30;99.90;;;;;;5130091;27;20047;-82
2023/04/25 04:37:10;;;;;;;9.93;1.67;;;4.30;99.90;;;;;;5111979;27;20058;-79
2023/04/25 04:39:36;;;;;;;10.27;1.77;;;4.20;99.90;;;;;;5111569;27;20421;-79
2023/04/25 04:42:03;;;;;;;10.43;1.85;;;4.20;99.90;;;;;;5110841;27;20050;-81
2023/04/25 04:44:32;;;;;;;14.88;2.50;;;4.20;99.90;;;;;;5112083;27;20548;-78
2023/04/25 04:46:58;;;;;;;10.68;1.80;;;5.80;99.90;;;;;;5129896;27;20083;-78
2023/04/25 04:49:24;;;;;;;15.25;1.90;;;4.30;99.90;;;;;;5095715;27;20458;-77
2023/04/25 04:51:50;;;;;;;11.18;1.60;;;4.30;99.90;;;;;;5110887;27;20097;-77
2023/04/25 04:54:15;;;;;;;8.43;1.40;;;4.70;99.90;;;;;;5111189;27;20039;-78
2023/04/25 04:56:41;;;;;;;19.10;2.47;;;4.50;99.90;;;;;;5111263;27;20126;-82
2023/04/25 04:59:07;;;;;;;18.00;3.42;;;4.60;99.90;;;;;;5110755;27;20519;-77
2023/04/25 05:01:35;;;;;;;11.52;1.40;;;4.70;99.90;;;;;;5111546;27;20085;-80
2023/04/25 05:04:02;;;;;;;18.65;4.18;;;4.80;99.90;;;;;;5128922;27;20070;-79
2023/04/25 05:06:29;;;;;;;10.30;1.65;;;4.80;99.90;;;;;;5111937;27;20047;-79
2023/04/25 05:08:55;;;;;;;7.38;1.00;;;4.90;99.90;;;;;;5110596;27;20054;-79
2023/04/25 05:11:21;;;;;;;3.92;1.00;;;6.40;99.90;;;;;;5110877;27;20047;-78
2023/04/25 05:13:47;;;;;;;3.05;0.77;;;5.80;99.90;;;;;;5094357;27;20050;-79
2023/04/25 05:16:13;;;;;;;7.40;0.60;;;6.50;99.90;;;;;;5110404;27;20414;-83
2023/04/25 05:18:39;;;;;;;3.53;0.80;;;5.00;99.90;;;;;;5094295;27;20241;-80
2023/04/25 05:21:05;;;;;;;3.15;1.13;;;6.00;99.90;;;;;;5110168;27;20114;-76
2023/04/25 05:23:32;;;;;;;4.43;0.70;;;5.50;99.90;;;;;;5077853;27;20165;-77
2023/04/25 05:25:58;;;;;;;8.20;0.88;;;5.30;99.90;;;;;;5110168;27;20050;-77
2023/04/25 05:28:24;;;;;;;8.98;1.10;;;5.70;99.90;;;;;;5111028;27;20766;-77
2023/04/25 05:30:50;;;;;;;5.68;1.55;;;5.00;99.90;;;;;;5110366;27;20043;-77
2023/04/25 05:33:15;;;;;;;7.40;1.20;;;4.90;99.90;;;;;;5109887;27;20108;-77
2023/04/25 05:35:42;;;;;;;9.73;0.77;;;5.00;99.90;;;;;;5110725;27;20111;-77
2023/04/25 05:38:07;;;;;;;7.65;0.95;;;5.00;99.90;;;;;;5110361;27;20051;-77
2023/04/25 05:40:34;;;;;;;5.30;0.93;;;5.10;99.90;;;;;;5094319;27;20409;-77
2023/04/25 05:42:59;;;;;;;6.07;1.13;;;5.10;99.90;;;;;;5128301;27;20081;-81
2023/04/25 05:45:25;;;;;;;13.80;1.55;;;5.20;99.90;;;;;;5093842;27;20047;-79
2023/04/25 05:47:50;;;;;;;14.93;0.80;;;6.70;99.90;;;;;;5110013;27;20051;-79
2023/04/25 05:50:16;;;;;;;10.20;0.98;;;6.50;99.90;;;;;;5110340;27;20054;-79
2023/04/25 05:52:42;;;;;;;12.80;1.13;;;5.80;99.90;;;;;;5092746;27;20485;-79
2023/04/25 05:55:08;;;;;;;13.27;1.45;;;6.50;99.90;;;;;;5109639;27;20516;-79
2023/04/25 05:57:34;;;;;;;12.52;1.40;;;5.60;99.90;;;;;;5110308;27;20039;-79
2023/04/25 05:59:59;;;;;;;9.35;1.25;;;5.70;99.90;;;;;;5109382;27;20043;-79
2023/04/25 06:02:26;;;;;;;8.05;1.15;;;5.70;99.90;;;;;;5110642;27;20047;-79
2023/04/25 06:04:51;;;;;;;6.97;0.98;;;5.80;99.90;;;;;;5109506;27;20046;-79
2023/04/25 06:07:18;;;;;;;13.70;1.20;;;5.90;99.90;;;;;;5092951;27;20402;-79
2023/04/25 06:09:44;;;;;;;4.57;0.85;;;6.30;99.90;;;;;;5110440;27;20070;-79
2023/04/25 06:12:10;;;;;;;5.97;0.82;;;6.10;99.90;;;;;;5109609;27;20043;-79
2023/04/25 06:14:36;;;;;;;2.35;0.63;;;6.10;99.90;;;;;;5110400;27;20039;-79
2023/04/25 06:17:08;;;;;;;7.20;0.85;;;6.10;99.90;;;;;;5109560;27;20077;-79
2023/04/25 06:19:34;;;;;;;3.88;0.57;;;6.20;99.90;;;;;;5110268;27;20054;-78
2023/04/25 06:22:00;;;;;;;11.80;0.88;;;6.10;99.90;;;;;;5109558;27;20047;-78
2023/04/25 06:24:25;;;;;;;2.85;0.40;;;6.10;99.90;;;;;;5109773;27;20038;-78
2023/04/25 06:26:52;;;;;;;4.63;1.25;;;6.20;99.90;;;;;;5109551;27;20080;-79
2023/04/25 06:29:18;;;;;;;7.55;0.80;;;6.10;99.90;;;;;;5108955;27;20053;-78
2023/04/25 06:31:44;;;;;;;3.42;0.70;;;6.50;99.90;;;;;;5093109;27;20039;-78
2023/04/25 06:34:10;;;;;;;8.60;2.60;;;6.30;99.90;;;;;;5126675;27;20599;-78
2023/04/25 06:36:36;;;;;;;7.93;1.35;;;6.50;99.90;;;;;;5108624;28;20132;-78
2023/04/25 06:39:02;;;;;;;10.75;0.90;;;6.70;99.90;;;;;;5126915;27;20043;-78
2023/04/25 06:41:28;;;;;;;7.57;1.35;;;7.00;99.90;;;;;;5108621;27;20043;-78
2023/04/25 06:43:53;;;;;;;10.80;1.20;;;7.30;99.90;;;;;;5107901;28;20061;-78
2023/04/25 06:46:19;;;;;;;8.40;0.80;;;8.00;99.90;;;;;;5108372;28;20078;-78
2023/04/25 06:48:45;;;;;;;9.30;1.50;;;7.90;99.90;;;;;;5108243;28;20051;-78
2023/04/25 06:51:11;;;;;;;10.35;1.42;;;7.90;99.90;;;;;;5107844;28;20156;-78
2023/04/25 06:53:36;;;;;;;10.52;1.38;;;8.00;99.90;;;;;;5108784;28;20054;-77
2023/04/25 06:56:02;;;;;;;12.13;1.90;;;8.00;99.90;;;;;;5107894;28;20050;-78
2023/04/25 06:58:28;;;;;;;7.22;1.13;;;8.10;99.90;;;;;;5108398;28;20051;-81
2023/04/25 07:00:54;;;;;;;9.68;2.45;;;8.20;99.90;;;;;;5090928;28;20039;-78
2023/04/25 07:03:20;;;;;;;11.27;1.08;;;8.20;99.90;;;;;;5108762;27;20043;-78
2023/04/25 07:05:46;;;;;;;9.98;1.58;;;8.30;99.90;;;;;;5112337;27;20125;-77
2023/04/25 07:08:12;;;;;;;9.63;1.27;;;8.20;99.90;;;;;;5094873;27;20039;-77
2023/04/25 07:10:38;;;;;;;5.82;1.10;;;8.20;99.90;;;;;;5095476;27;20046;-77
2023/04/25 07:13:03;;;;;;;8.50;1.30;;;8.20;99.90;;;;;;5094791;27;20077;-77
2023/04/25 07:15:29;;;;;;;9.95;1.20;;;8.20;99.90;;;;;;5112229;27;20047;-77
2023/04/25 07:17:55;;;;;;;6.43;1.33;;;8.40;99.90;;;;;;5130173;27;20043;-78
2023/04/25 07:20:20;;;;;;;13.38;1.52;;;8.40;99.90;;;;;;5111713;27;20122;-78
2023/04/25 07:22:46;;;;;;;10.77;1.38;;;8.40;99.90;;;;;;5111809;27;20047;-78
2023/04/25 07:25:12;;;;;;;6.63;0.98;;;8.50;99.90;;;;;;5111653;27;20043;-78
2023/04/25 07:27:37;;;;;;;10.32;1.10;;;8.60;99.90;;;;;;5095405;27;20070;-78
2023/04/25 07:30:04;;;;;;;9.02;1.40;;;8.70;99.90;;;;;;5111364;27;20039;-79
2023/04/25 07:32:30;;;;;;;5.88;0.73;;;8.80;99.90;;;;;;5112060;27;20497;-82
2023/04/25 07:34:55;;;;;;;6.10;0.85;;;8.80;99.90;;;;;;5129949;27;20057;-77
2023/04/25 07:37:21;;;;;;;7.18;1.00;;;8.90;99.90;;;;;;5129932;27;20039;-77
2023/04/25 07:39:47;;;;;;;6.25;0.93;;;8.80;99.90;;;;;;5130065;27;20039;-77
2023/04/25 07:42:13;;;;;;;9.60;1.83;;;8.70;99.90;;;;;;5111348;27;20509;-77
2023/04/25 07:44:39;;;;;;;11.00;1.40;;;8.80;99.90;;;;;;5130363;27;20051;-77
2023/04/25 07:47:09;;;;;;;13.50;3.05;;;8.70;99.90;;;;;;5094635;27;20108;-77
2023/04/25 07:49:36;;;;;;;4.82;1.25;;;8.70;99.90;;;;;;5111850;27;20047;-77
2023/04/25 07:52:03;;;;;;;5.55;0.85;;;8.60;99.90;;;;;;5111172;27;20710;-76
2023/04/25 07:54:29;;;;;;;5.40;0.90;;;8.60;99.90;;;;;;5111579;27;20046;-77
2023/04/25 07:56:55;;;;;;;8.48;1.95;;;8.60;99.90;;;;;;5093904;27;20104;-77
2023/04/25 07:59:21;;;;;;;10.98;1.05;;;8.60;99.90;;;;;;5111386;27;20043;-77
2023/04/25 08:01:47;;;;;;;4.53;0.68;;;8.30;99.90;;;;;;5094740;27;20597;-77
2023/04/25 08:04:13;;;;;;;7.30;0.80;;;8.70;99.90;;;;;;5110925;27;20134;-77
2023/04/25 08:06:38;;;;;;;8.20;1.30;;;9.00;99.90;;;;;;5129990;27;20079;-77
2023/04/25 08:09:04;;;;;;;4.97;0.68;;;9.30;99.90;;;;;;5110816;27;20482;-77
2023/04/25 08:11:30;;;;;;;9.80;0.70;;;9.30;99.90;;;;;;5094404;27;20104;-77
2023/04/25 08:13:56;;;;;;;3.95;0.55;;;9.50;99.90;;;;;;5110741;27;20082;-77
2023/04/25 08:16:22;;;;;;;3.85;0.85;;;8.70;99.90;;;;;;5109646;27;20130;-77
2023/04/25 08:18:47;;;;;;;5.63;0.75;;;8.20;99.90;;;;;;5129356;27;20051;-76
2023/04/25 08:21:13;;;;;;;4.88;0.65;;;7.50;99.90;;;;;;5110524;27;20054;-79
2023/04/25 08:23:39;;;;;;;7.90;0.80;;;7.70;99.90;;;;;;5093987;27;20035;-78
2023/04/25 08:26:05;;;;;;;4.38;0.43;;;7.60;99.90;;;;;;5110435;27;20502;-78
2023/04/25 08:28:31;;;;;;;2.17;0.40;;;8.90;99.90;;;;;;5110989;27;20082;-78
2023/04/25 08:30:57;;;;;;;4.85;0.55;;;7.60;99.90;;;;;;5110191;27;20047;-78
2023/04/25 08:33:23;;;;;;;2.05;0.35;;;7.60;99.90;;;;;;5128844;27;20050;-76
2023/04/25 08:35:48;;;;;;;5.80;0.90;;;7.60;99.90;;;;;;5110779;27;20393;-78
2023/04/25 08:38:14;;;;;;;6.38;0.90;;;7.70;99.90;;;;;;5093055;27;20043;-78
2023/04/25 08:40:41;;;;;;;4.80;0.80;;;7.80;99.90;;;;;;5110789;27;20063;-78
2023/04/25 08:43:11;;;;;;;2.50;0.50;;;7.90;99.90;;;;;;5109851;27;20046;-80
2023/04/25 08:45:41;;;;;;;4.25;0.73;;;8.00;99.90;;;;;;5111160;27;20051;-80
2023/04/25 08:48:12;;;;;;;5.82;0.73;;;8.20;99.90;;;;;;5110127;27;20054;-82
2023/04/25 08:50:50;;;;;;;2.35;0.50;;;8.40;99.90;;;;;;5110002;27;20047;-79
2023/04/25 08:53:20;;;;;;;7.03;0.40;;;8.60;99.90;;;;;;5093400;27;20042;-77
2023/04/25 08:55:46;;;;;;;2.70;0.55;;;8.80;99.90;;;;;;5109955;27;20525;-77
2023/04/25 08:58:13;;;;;;;6.25;0.70;;;9.00;99.90;;;;;;5110026;27;20043;-77
2023/04/25 09:00:39;;;;;;;9.25;0.98;;;9.20;99.90;;;;;;5110183;27;20514;-77
2023/04/25 09:03:05;;;;;;;12.68;1.08;;;9.40;99.90;;;;;;5110224;27;20043;-77
2023/04/25 09:05:35;;;;;;;6.80;1.08;;;9.60;99.90;;;;;;5109818;27;20429;-77
2023/04/25 09:08:01;;;;;;;3.90;1.00;;;9.80;99.90;;;;;;5109805;27;20043;-79
2023/04/25 09:10:28;;;;;;;13.70;1.08;;;10.20;99.90;;;;;;5093288;27;20054;-79
2023/04/25 09:13:12;;;;;;;9.63;1.80;;;10.30;99.90;;;;;;5092986;27;20118;-77
2023/04/25 09:15:51;;;;;;;6.88;0.98;;;10.20;99.90;;;;;;5110385;27;20053;-79
2023/04/25 09:18:31;;;;;;;12.07;1.25;;;10.20;99.90;;;;;;5109631;27;20106;-79
2023/04/25 09:21:08;;;;;;;9.57;1.08;;;10.20;99.90;;;;;;5109333;27;20497;-79
2023/04/25 09:23:43;;;;;;;8.85;1.70;;;10.20;99.90;;;;;;5109987;27;20053;-79
2023/04/25 09:26:09;;;;;;;12.50;3.08;;;10.40;99.90;;;;;;5109231;27;20078;-79
2023/04/25 09:28:35;;;;;;;9.20;1.88;;;10.50;99.90;;;;;;5109676;27;20511;-79
2023/04/25 09:31:01;;;;;;;6.70;1.10;;;10.20;99.90;;;;;;5109731;27;20043;-77
2023/04/25 09:33:35;;;;;;;7.97;1.25;;;9.80;99.90;;;;;;5092221;27;20084;-78
2023/04/25 09:36:04;;;;;;;11.70;1.40;;;9.60;99.90;;;;;;5092952;27;20055;-77
2023/04/25 09:38:51;;;;;;;11.35;1.38;;;9.40;99.90;;;;;;5092257;27;20093;-78
2023/04/25 09:41:23;;;;;;;9.52;1.63;;;9.30;99.90;;;;;;5108631;27;20108;-77
2023/04/25 09:43:50;;;;;;;17.92;1.50;;;9.40;99.90;;;;;;5109360;27;20405;-78
2023/04/25 09:46:17;;;;;;;6.95;1.13;;;9.60;99.90;;;;;;5092189;27;20508;-76
2023/04/25 09:48:50;;;;;;;7.68;1.38;;;10.00;99.90;;;;;;5109712;27;20039;-78
2023/04/25 09:51:16;;;;;;;5.28;0.90;;;10.20;99.90;;;;;;5109429;27;20043;-78
2023/04/25 09:53:49;;;;;;;8.48;1.05;;;10.40;99.90;;;;;;5109120;27;20505;-76
2023/04/25 09:56:15;;;;;;;5.75;1.10;;;10.70;99.90;;;;;;5108553;27;20656;-76
2023/04/25 09:58:42;;;;;;;9.57;1.67;;;11.10;99.90;;;;;;5108677;27;20561;-79
2023/04/25 10:01:09;;;;;;;5.75;0.75;;;11.20;99.90;;;;;;5091757;27;20039;-77
2023/04/25 10:03:41;;;;;;;13.75;1.95;;;11.20;99.90;;;;;;5127352;27;20128;-77
2023/04/25 10:06:11;;;;;;;8.77;1.23;;;11.30;99.90;;;;;;5109204;27;20047;-74
2023/04/25 10:08:38;;;;;;;9.65;1.42;;;11.40;99.90;;;;;;5109057;27;20043;-76
2023/04/25 10:11:06;;;;;;;11.63;1.88;;;11.40;99.90;;;;;;5108904;27;20428;-76
2023/04/25 10:13:35;;;;;;;8.80;0.80;;;11.50;99.90;;;;;;5108573;27;20520;-76
2023/04/25 10:16:03;;;;;;;3.03;0.63;;;11.20;99.90;;;;;;5127137;27;20043;-76
2023/04/25 10:18:30;;;;;;;8.93;0.80;;;10.80;99.90;;;;;;5108642;27;20043;-77
2023/04/25 10:21:01;;;;;;;7.68;1.00;;;9.60;99.90;;;;;;5126531;27;20516;-76
2023/04/25 10:23:28;;;;;;;13.25;1.67;;;9.80;99.90;;;;;;5109144;27;20063;-76
2023/04/25 10:25:54;;;;;;;5.00;1.00;;;9.40;99.90;;;;;;5108361;27;20468;-76
2023/04/25 10:28:21;;;;;;;10.10;1.00;;;9.20;99.90;;;;;;5108530;28;20132;-79
2023/04/25 10:31:03;;;;;;;13.00;1.60;;;9.30;99.90;;;;;;5091622;27;20093;-81
2023/04/25 10:33:37;;;;;;;9.15;1.02;;;9.60;99.90;;;;;;5107965;27;20073;-79
2023/04/25 10:36:13;;;;;;;9.13;1.58;;;9.90;99.90;;;;;;5108401;27;20121;-79
2023/04/25 10:38:40;;;;;;;10.07;1.15;;;10.20;99.90;;;;;;5108189;28;20061;-79
2023/04/25 10:41:08;;;;;;;7.45;0.73;;;10.60;99.90;;;;;;5091467;27;20508;-79
2023/04/25 10:43:42;;;;;;;14.57;1.40;;;11.00;99.90;;;;;;5108078;28;20108;-79
2023/04/25 10:46:34;;;;;;;10.30;1.80;;;11.00;99.90;;;;;;5108258;28;20070;-78
2023/04/25 10:49:01;;;;;;;7.78;1.00;;;11.00;99.90;;;;;;5107966;28;20478;-78
2023/04/25 10:51:31;;;;;;;6.00;0.77;;;10.80;99.90;;;;;;5107748;28;20506;-76
2023/04/25 10:54:02;;;;;;;6.35;1.23;;;10.40;99.90;;;;;;5108222;28;20055;-77
2023/04/25 10:56:40;;;;;;;6.28;0.82;;;10.00;99.90;;;;;;5108406;28;20043;-77
2023/04/25 10:59:14;;;;;;;6.13;1.02;;;10.20;99.90;;;;;;5107827;28;20043;-76
2023/04/25 11:01:48;;;;;;;7.25;1.52;;;9.60;99.90;;;;;;5108157;28;20494;-76
2023/04/25 11:04:33;;;;;;;5.75;1.20;;;9.80;99.90;;;;;;5108248;28;20051;-74
2023/04/25 11:07:02;;;;;;;5.13;1.02;;;10.30;99.90;;;;;;5108429;28;20063;-75
2023/04/25 11:09:28;;;;;;;12.00;1.33;;;10.40;99.90;;;;;;5107934;28;20047;-78
2023/04/25 11:11:55;;;;;;;9.15;1.52;;;10.80;99.90;;;;;;5073877;28;20054;-77
2023/04/25 11:14:21;;;;;;;3.53;0.50;;;11.20;99.90;;;;;;5108254;28;20043;-77
2023/04/25 11:16:47;;;;;;;6.43;0.95;;;11.60;99.90;;;;;;5107599;28;20063;-79
2023/04/25 11:19:13;;;;;;;6.82;0.82;;;11.50;99.90;;;;;;5108203;28;20051;-77
2023/04/25 11:21:39;;;;;;;5.07;0.65;;;11.40;99.90;;;;;;5107417;28;20046;-77
2023/04/25 11:24:05;;;;;;;5.30;0.90;;;11.50;99.90;;;;;;5107561;28;20117;-79
2023/04/25 11:26:30;;;;;;;4.50;0.93;;;11.70;99.90;;;;;;5107394;28;20051;-78
2023/04/25 11:29:02;;;;;;;6.75;1.10;;;11.90;99.90;;;;;;5125777;28;20142;-77
2023/04/25 11:31:29;;;;;;;6.70;1.10;;;11.90;99.60;;;;;;5107762;28;20059;-77
2023/04/25 11:33:57;;;;;;;9.30;1.15;;;11.60;98.80;;;;;;5125674;28;20043;-77
2023/04/25 11:36:24;;;;;;;12.00;1.42;;;11.50;98.80;;;;;;5107792;28;20081;-77
2023/04/25 11:38:51;;;;;;;8.05;1.30;;;11.50;99.40;;;;;;5107254;28;20043;-77
2023/04/25 11:41:18;;;;;;;11.55;1.35;;;11.60;99.90;;;;;;5125916;28;20047;-77
2023/04/25 11:43:44;;;;;;;5.68;1.05;;;11.70;99.90;;;;;;5090447;28;20092;-77
2023/04/25 11:46:11;;;;;;;9.45;1.42;;;11.80;99.90;;;;;;5090219;28;20039;-76
2023/04/25 11:48:43;;;;;;;8.68;0.88;;;11.80;99.50;;;;;;5125658;28;20047;-77
2023/04/25 11:51:09;;;;;;;8.43;1.35;;;11.90;99.20;;;;;;5127002;27;20047;-76
2023/04/25 11:53:35;;;;;;;5.45;1.08;;;12.20;99.50;;;;;;5111825;27;20041;-76
2023/04/25 11:56:01;;;;;;;11.10;1.65;;;12.60;99.10;;;;;;5129613;27;20043;-76
2023/04/25 11:58:27;;;;;;;8.55;0.80;;;12.50;97.90;;;;;;5129987;27;20055;-76
2023/04/25 12:00:53;;;;;;;3.47;0.73;;;12.30;97.30;;;;;;5111128;27;20108;-77
2023/04/25 12:03:20;;;;;;;6.05;1.00;;;12.10;96.90;;;;;;5110753;27;20054;-77
2023/04/25 12:05:46;;;;;;;7.65;1.33;;;12.10;97.30;;;;;;5110767;27;20532;-77
2023/04/25 12:08:15;;;;;;;7.60;1.10;;;12.10;97.40;;;;;;5111201;27;20039;-77
2023/04/25 12:10:42;;;;;;;4.35;1.02;;;12.30;97.00;;;;;;5111201;27;20088;-77
2023/04/25 12:13:38;;;;;;;4.07;0.88;;;12.50;97.20;;;;;;5128859;27;20043;-78
2023/04/25 12:16:03;;;;;;;6.97;1.10;;;12.70;95.20;;;;;;5089173;27;20263;-78
2023/04/25 12:18:30;;;;;;;9.93;1.52;;;12.70;96.50;;;;;;5111104;27;20079;-77
2023/04/25 12:20:56;;;;;;;9.23;1.20;;;12.80;96.90;;;;;;5093365;27;20047;-77
2023/04/25 12:23:28;;;;;;;4.38;0.80;;;13.00;96.60;;;;;;5111295;27;20062;-77
2023/04/25 12:25:54;;;;;;;4.28;0.82;;;13.10;95.20;;;;;;5129379;27;20106;-78
2023/04/25 12:28:23;;;;;;;9.27;2.00;;;13.20;95.10;;;;;;5110625;27;20046;-78
2023/04/25 12:31:04;;;;;;;8.85;1.02;;;13.30;94.90;;;;;;5128722;27;20045;-78
2023/04/25 12:33:37;;;;;;;8.45;0.98;;;13.10;95.50;;;;;;5128423;27;20058;-79
2023/04/25 12:36:08;;;;;;;12.68;1.20;;;12.50;97.60;;;;;;5129411;27;20054;-81
2023/04/25 12:38:39;;;;;;;9.20;1.45;;;12.20;99.90;;;;;;5077479;27;20096;-78
2023/04/25 12:41:05;;;;;;;10.07;1.20;;;12.10;99.90;;;;;;5093848;27;20122;-78
2023/04/25 12:43:30;;;;;;;7.53;1.20;;;12.00;99.90;;;;;;5076804;27;20035;-78
2023/04/25 12:45:56;;;;;;;13.00;1.17;;;11.80;99.90;;;;;;5092587;27;20409;-78
2023/04/25 12:48:23;;;;;;;6.38;1.38;;;11.80;99.90;;;;;;5128086;27;20035;-78
2023/04/25 12:50:50;;;;;;;5.05;0.75;;;11.80;99.80;;;;;;5127674;27;20107;-77